Elk Grove, Pennsylvania
Current Conditions -  °F | °C
As of 6:55 PM on Saturday 22 Nov 2014 (Local Time) from KHZL Reporting Station
Overcast Overcast  
Wind Chill: 33°   Ceiling: 2500
Heat Index: 37°   Visibility: 10mi
Dew Point: 16°   Wind: 6mph
Humidity: 41%   Direction: 180°S
Pressure: 30.22"   Gusts: NA
Location:  41.2534°N, 76.3299°W
Report Text: KHZL 222355Z AUTO 18005KT 10SM OVC025 03/M09 A3022 RMK AO2
Loading
Personal Weather Stations






























Interactive Weather Map New forecast layout! Learn more

10-Day Weather Forecast

Advertisements
Track Severe Weather on mobile